sensor_id;sensor_type;location;lat;lon;timestamp;temperature;humidity
74081;SHT31;62438;52.228;6.864;2023-06-04T00:01:28;11.65;67.70
74081;SHT31;62438;52.228;6.864;2023-06-04T00:03:28;11.58;67.88
74081;SHT31;62438;52.228;6.864;2023-06-04T00:05:29;11.47;68.16
74081;SHT31;62438;52.228;6.864;2023-06-04T00:07:29;11.41;68.41
74081;SHT31;62438;52.228;6.864;2023-06-04T00:09:29;11.52;67.76
74081;SHT31;62438;52.228;6.864;2023-06-04T00:11:30;11.48;68.14
74081;SHT31;62438;52.228;6.864;2023-06-04T00:13:33;11.45;68.10
74081;SHT31;62438;52.228;6.864;2023-06-04T00:15:34;11.47;67.87
74081;SHT31;62438;52.228;6.864;2023-06-04T00:17:34;11.35;68.70
74081;SHT31;62438;52.228;6.864;2023-06-04T00:19:35;11.34;69.29
74081;SHT31;62438;52.228;6.864;2023-06-04T00:21:35;11.26;69.21
74081;SHT31;62438;52.228;6.864;2023-06-04T00:23:36;11.26;69.97
74081;SHT31;62438;52.228;6.864;2023-06-04T00:25:36;11.11;69.74
74081;SHT31;62438;52.228;6.864;2023-06-04T00:27:36;11.06;69.83
74081;SHT31;62438;52.228;6.864;2023-06-04T00:29:37;11.07;69.86
74081;SHT31;62438;52.228;6.864;2023-06-04T00:31:37;10.99;69.96
74081;SHT31;62438;52.228;6.864;2023-06-04T00:33:41;10.95;69.93
74081;SHT31;62438;52.228;6.864;2023-06-04T00:35:42;10.90;69.91
74081;SHT31;62438;52.228;6.864;2023-06-04T00:37:42;10.83;70.71
74081;SHT31;62438;52.228;6.864;2023-06-04T00:39:43;10.79;70.73
74081;SHT31;62438;52.228;6.864;2023-06-04T00:41:43;10.73;71.20
74081;SHT31;62438;52.228;6.864;2023-06-04T00:43:44;10.70;71.03
74081;SHT31;62438;52.228;6.864;2023-06-04T00:45:45;10.73;71.15
74081;SHT31;62438;52.228;6.864;2023-06-04T00:47:46;10.69;71.29
74081;SHT31;62438;52.228;6.864;2023-06-04T00:49:47;10.70;71.61
74081;SHT31;62438;52.228;6.864;2023-06-04T00:51:47;10.66;72.00
74081;SHT31;62438;52.228;6.864;2023-06-04T00:53:51;10.62;71.78
74081;SHT31;62438;52.228;6.864;2023-06-04T00:55:52;10.62;71.97
74081;SHT31;62438;52.228;6.864;2023-06-04T00:57:52;10.65;71.75
74081;SHT31;62438;52.228;6.864;2023-06-04T00:59:53;10.62;72.31
74081;SHT31;62438;52.228;6.864;2023-06-04T01:01:57;10.58;72.07
74081;SHT31;62438;52.228;6.864;2023-06-04T01:04:00;10.55;72.33
74081;SHT31;62438;52.228;6.864;2023-06-04T01:06:21;10.49;72.82
74081;SHT31;62438;52.228;6.864;2023-06-04T01:08:26;10.52;72.90
74081;SHT31;62438;52.228;6.864;2023-06-04T01:10:26;10.42;73.68
74081;SHT31;62438;52.228;6.864;2023-06-04T01:12:27;10.44;73.28
74081;SHT31;62438;52.228;6.864;2023-06-04T01:14:27;10.52;73.86
74081;SHT31;62438;52.228;6.864;2023-06-04T01:16:42;10.51;73.17
74081;SHT31;62438;52.228;6.864;2023-06-04T01:18:44;10.69;72.15
74081;SHT31;62438;52.228;6.864;2023-06-04T01:20:48;10.65;72.54
74081;SHT31;62438;52.228;6.864;2023-06-04T01:24:53;10.73;72.11
74081;SHT31;62438;52.228;6.864;2023-06-04T01:26:56;10.59;72.95
74081;SHT31;62438;52.228;6.864;2023-06-04T01:29:00;10.52;73.23
74081;SHT31;62438;52.228;6.864;2023-06-04T01:31:03;10.39;73.86
74081;SHT31;62438;52.228;6.864;2023-06-04T01:33:03;10.44;73.77
74081;SHT31;62438;52.228;6.864;2023-06-04T01:35:08;10.34;74.20
74081;SHT31;62438;52.228;6.864;2023-06-04T01:37:08;10.27;74.44
74081;SHT31;62438;52.228;6.864;2023-06-04T01:39:11;10.21;74.76
74081;SHT31;62438;52.228;6.864;2023-06-04T01:41:12;10.17;74.97
74081;SHT31;62438;52.228;6.864;2023-06-04T01:43:13;10.15;75.56
74081;SHT31;62438;52.228;6.864;2023-06-04T01:45:13;10.07;75.45
74081;SHT31;62438;52.228;6.864;2023-06-04T01:47:13;10.07;75.34
74081;SHT31;62438;52.228;6.864;2023-06-04T01:49:14;10.08;75.58
74081;SHT31;62438;52.228;6.864;2023-06-04T01:51:14;10.04;75.91
74081;SHT31;62438;52.228;6.864;2023-06-04T01:53:15;9.98;76.24
74081;SHT31;62438;52.228;6.864;2023-06-04T01:55:16;9.98;76.55
74081;SHT31;62438;52.228;6.864;2023-06-04T01:57:18;9.95;76.54
74081;SHT31;62438;52.228;6.864;2023-06-04T01:59:19;9.95;76.53
74081;SHT31;62438;52.228;6.864;2023-06-04T02:01:20;10.01;76.95
74081;SHT31;62438;52.228;6.864;2023-06-04T02:03:21;9.95;76.96
74081;SHT31;62438;52.228;6.864;2023-06-04T02:05:22;10.00;76.58
74081;SHT31;62438;52.228;6.864;2023-06-04T02:07:22;9.97;76.66
74081;SHT31;62438;52.228;6.864;2023-06-04T02:09:23;9.94;76.99
74081;SHT31;62438;52.228;6.864;2023-06-04T02:11:23;10.01;76.60
74081;SHT31;62438;52.228;6.864;2023-06-04T02:13:24;9.97;76.86
74081;SHT31;62438;52.228;6.864;2023-06-04T02:15:25;9.94;76.83
74081;SHT31;62438;52.228;6.864;2023-06-04T02:17:26;9.93;77.09
74081;SHT31;62438;52.228;6.864;2023-06-04T02:19:26;9.86;77.75
74081;SHT31;62438;52.228;6.864;2023-06-04T02:21:27;9.77;78.02
74081;SHT31;62438;52.228;6.864;2023-06-04T02:23:27;9.70;78.41
74081;SHT31;62438;52.228;6.864;2023-06-04T02:25:28;9.70;78.49
74081;SHT31;62438;52.228;6.864;2023-06-04T02:27:29;9.63;78.84
74081;SHT31;62438;52.228;6.864;2023-06-04T02:29:29;9.60;79.04
74081;SHT31;62438;52.228;6.864;2023-06-04T02:31:30;9.67;78.82
74081;SHT31;62438;52.228;6.864;2023-06-04T02:33:31;9.60;78.82
74081;SHT31;62438;52.228;6.864;2023-06-04T02:35:31;9.59;79.23
74081;SHT31;62438;52.228;6.864;2023-06-04T02:37:32;9.67;78.77
74081;SHT31;62438;52.228;6.864;2023-06-04T02:39:32;9.63;79.11
74081;SHT31;62438;52.228;6.864;2023-06-04T02:41:32;9.56;80.16
74081;SHT31;62438;52.228;6.864;2023-06-04T02:43:33;9.49;80.07
74081;SHT31;62438;52.228;6.864;2023-06-04T02:45:33;9.56;80.09
74081;SHT31;62438;52.228;6.864;2023-06-04T02:47:33;9.56;80.00
74081;SHT31;62438;52.228;6.864;2023-06-04T02:49:35;9.44;80.06
74081;SHT31;62438;52.228;6.864;2023-06-04T02:51:35;9.43;80.56
74081;SHT31;62438;52.228;6.864;2023-06-04T02:53:37;9.31;80.85
74081;SHT31;62438;52.228;6.864;2023-06-04T02:55:37;9.40;80.79
74081;SHT31;62438;52.228;6.864;2023-06-04T02:57:42;9.29;81.56
74081;SHT31;62438;52.228;6.864;2023-06-04T02:59:43;9.23;81.48
74081;SHT31;62438;52.228;6.864;2023-06-04T03:01:43;9.18;82.11
74081;SHT31;62438;52.228;6.864;2023-06-04T03:03:44;9.14;82.25
74081;SHT31;62438;52.228;6.864;2023-06-04T03:05:45;9.10;82.35
74081;SHT31;62438;52.228;6.864;2023-06-04T03:07:46;9.02;82.68
74081;SHT31;62438;52.228;6.864;2023-06-04T03:09:47;9.00;82.75
74081;SHT31;62438;52.228;6.864;2023-06-04T03:11:47;9.01;82.93
74081;SHT31;62438;52.228;6.864;2023-06-04T03:13:48;9.08;83.08
74081;SHT31;62438;52.228;6.864;2023-06-04T03:15:49;9.08;83.03
74081;SHT31;62438;52.228;6.864;2023-06-04T03:17:49;9.00;83.31
74081;SHT31;62438;52.228;6.864;2023-06-04T03:19:51;9.00;83.64
74081;SHT31;62438;52.228;6.864;2023-06-04T03:21:51;9.01;83.85
74081;SHT31;62438;52.228;6.864;2023-06-04T03:23:55;9.01;83.90
74081;SHT31;62438;52.228;6.864;2023-06-04T03:25:56;9.01;84.03
74081;SHT31;62438;52.228;6.864;2023-06-04T03:27:56;9.00;84.03
74081;SHT31;62438;52.228;6.864;2023-06-04T03:29:57;9.07;83.85
74081;SHT31;62438;52.228;6.864;2023-06-04T03:31:58;9.12;83.88
74081;SHT31;62438;52.228;6.864;2023-06-04T03:33:58;9.15;83.74
74081;SHT31;62438;52.228;6.864;2023-06-04T03:35:59;9.08;83.96
74081;SHT31;62438;52.228;6.864;2023-06-04T03:37:59;9.04;84.38
74081;SHT31;62438;52.228;6.864;2023-06-04T03:40:00;9.05;84.27
74081;SHT31;62438;52.228;6.864;2023-06-04T03:42:01;9.12;84.37
74081;SHT31;62438;52.228;6.864;2023-06-04T03:44:01;9.18;84.10
74081;SHT31;62438;52.228;6.864;2023-06-04T03:46:01;9.15;84.23
74081;SHT31;62438;52.228;6.864;2023-06-04T03:48:02;9.22;84.28
74081;SHT31;62438;52.228;6.864;2023-06-04T03:50:03;9.15;84.53
74081;SHT31;62438;52.228;6.864;2023-06-04T03:52:03;9.18;84.62
74081;SHT31;62438;52.228;6.864;2023-06-04T03:54:05;9.15;84.84
74081;SHT31;62438;52.228;6.864;2023-06-04T03:56:05;9.19;84.89
74081;SHT31;62438;52.228;6.864;2023-06-04T03:58:06;9.26;84.72
74081;SHT31;62438;52.228;6.864;2023-06-04T04:00:13;9.28;84.49
74081;SHT31;62438;52.228;6.864;2023-06-04T04:02:14;9.36;84.51
74081;SHT31;62438;52.228;6.864;2023-06-04T04:04:15;9.40;84.57
74081;SHT31;62438;52.228;6.864;2023-06-04T04:06:16;9.49;84.37
74081;SHT31;62438;52.228;6.864;2023-06-04T04:08:17;9.53;84.32
74081;SHT31;62438;52.228;6.864;2023-06-04T04:10:18;9.59;84.08
74081;SHT31;62438;52.228;6.864;2023-06-04T04:12:18;9.57;84.34
74081;SHT31;62438;52.228;6.864;2023-06-04T04:14:19;9.60;84.36
74081;SHT31;62438;52.228;6.864;2023-06-04T04:16:19;9.76;84.13
74081;SHT31;62438;52.228;6.864;2023-06-04T04:18:21;9.74;83.96
74081;SHT31;62438;52.228;6.864;2023-06-04T04:20:21;9.77;84.12
74081;SHT31;62438;52.228;6.864;2023-06-04T04:22:22;9.79;84.65
74081;SHT31;62438;52.228;6.864;2023-06-04T04:24:26;9.77;84.41
74081;SHT31;62438;52.228;6.864;2023-06-04T04:26:27;9.84;84.44
74081;SHT31;62438;52.228;6.864;2023-06-04T04:28:28;9.87;83.96
74081;SHT31;62438;52.228;6.864;2023-06-04T04:30:29;9.90;84.27
74081;SHT31;62438;52.228;6.864;2023-06-04T04:32:29;10.00;84.01
74081;SHT31;62438;52.228;6.864;2023-06-04T04:34:31;10.14;83.52
74081;SHT31;62438;52.228;6.864;2023-06-04T04:36:33;10.24;82.74
74081;SHT31;62438;52.228;6.864;2023-06-04T04:38:36;10.25;83.46
74081;SHT31;62438;52.228;6.864;2023-06-04T04:40:37;10.22;83.22
74081;SHT31;62438;52.228;6.864;2023-06-04T04:42:38;10.22;83.29
74081;SHT31;62438;52.228;6.864;2023-06-04T04:44:38;10.28;83.69
74081;SHT31;62438;52.228;6.864;2023-06-04T04:46:38;10.34;83.20
74081;SHT31;62438;52.228;6.864;2023-06-04T04:48:39;10.34;83.58
74081;SHT31;62438;52.228;6.864;2023-06-04T04:50:40;10.42;82.99
74081;SHT31;62438;52.228;6.864;2023-06-04T04:52:41;10.52;83.02
74081;SHT31;62438;52.228;6.864;2023-06-04T04:54:41;10.58;81.94
74081;SHT31;62438;52.228;6.864;2023-06-04T04:56:42;10.59;82.50
74081;SHT31;62438;52.228;6.864;2023-06-04T04:58:42;10.63;83.07
74081;SHT31;62438;52.228;6.864;2023-06-04T05:00:43;10.83;81.76
74081;SHT31;62438;52.228;6.864;2023-06-04T05:02:44;10.88;82.03
74081;SHT31;62438;52.228;6.864;2023-06-04T05:04:44;10.99;81.55
74081;SHT31;62438;52.228;6.864;2023-06-04T05:06:45;11.03;81.33
74081;SHT31;62438;52.228;6.864;2023-06-04T05:08:45;11.18;80.72
74081;SHT31;62438;52.228;6.864;2023-06-04T05:10:46;11.26;80.91
74081;SHT31;62438;52.228;6.864;2023-06-04T05:12:54;11.30;79.52
74081;SHT31;62438;52.228;6.864;2023-06-04T05:14:54;11.39;79.15
74081;SHT31;62438;52.228;6.864;2023-06-04T05:16:55;11.58;79.28
74081;SHT31;62438;52.228;6.864;2023-06-04T05:18:58;11.68;79.24
74081;SHT31;62438;52.228;6.864;2023-06-04T05:21:00;11.86;78.40
74081;SHT31;62438;52.228;6.864;2023-06-04T05:23:03;11.95;77.56
74081;SHT31;62438;52.228;6.864;2023-06-04T05:25:04;12.05;78.26
74081;SHT31;62438;52.228;6.864;2023-06-04T05:27:06;12.06;76.91
74081;SHT31;62438;52.228;6.864;2023-06-04T05:29:09;12.16;77.75
74081;SHT31;62438;52.228;6.864;2023-06-04T05:31:10;12.26;78.28
74081;SHT31;62438;52.228;6.864;2023-06-04T05:33:13;12.43;76.54
74081;SHT31;62438;52.228;6.864;2023-06-04T05:35:18;12.47;76.15
74081;SHT31;62438;52.228;6.864;2023-06-04T05:37:18;12.60;77.12
74081;SHT31;62438;52.228;6.864;2023-06-04T05:39:19;12.69;74.71
74081;SHT31;62438;52.228;6.864;2023-06-04T05:41:20;12.85;74.49
74081;SHT31;62438;52.228;6.864;2023-06-04T05:43:24;12.94;73.81
74081;SHT31;62438;52.228;6.864;2023-06-04T05:45:24;12.94;74.03
74081;SHT31;62438;52.228;6.864;2023-06-04T05:47:25;12.95;73.88
74081;SHT31;62438;52.228;6.864;2023-06-04T05:49:25;13.05;75.02
74081;SHT31;62438;52.228;6.864;2023-06-04T05:51:26;13.12;75.25
74081;SHT31;62438;52.228;6.864;2023-06-04T05:53:27;13.23;73.83
74081;SHT31;62438;52.228;6.864;2023-06-04T05:55:27;13.32;71.74
74081;SHT31;62438;52.228;6.864;2023-06-04T05:57:29;13.38;71.74
74081;SHT31;62438;52.228;6.864;2023-06-04T05:59:29;13.46;72.35
74081;SHT31;62438;52.228;6.864;2023-06-04T06:01:30;13.57;70.96
74081;SHT31;62438;52.228;6.864;2023-06-04T06:03:30;13.66;72.58
74081;SHT31;62438;52.228;6.864;2023-06-04T06:05:31;13.73;71.90
74081;SHT31;62438;52.228;6.864;2023-06-04T06:07:32;13.82;71.84
74081;SHT31;62438;52.228;6.864;2023-06-04T06:09:32;13.84;71.22
74081;SHT31;62438;52.228;6.864;2023-06-04T06:11:33;13.88;70.33
74081;SHT31;62438;52.228;6.864;2023-06-04T06:13:33;13.97;70.94
74081;SHT31;62438;52.228;6.864;2023-06-04T06:15:33;14.08;70.96
74081;SHT31;62438;52.228;6.864;2023-06-04T06:17:34;14.08;70.30
74081;SHT31;62438;52.228;6.864;2023-06-04T06:19:36;14.11;70.65
74081;SHT31;62438;52.228;6.864;2023-06-04T06:21:37;14.19;69.75
74081;SHT31;62438;52.228;6.864;2023-06-04T06:23:38;14.28;69.95
74081;SHT31;62438;52.228;6.864;2023-06-04T06:25:38;14.29;69.69
74081;SHT31;62438;52.228;6.864;2023-06-04T06:27:40;14.43;68.58
74081;SHT31;62438;52.228;6.864;2023-06-04T06:29:41;14.50;68.24
74081;SHT31;62438;52.228;6.864;2023-06-04T06:31:42;14.60;69.27
74081;SHT31;62438;52.228;6.864;2023-06-04T06:33:42;14.69;70.04
74081;SHT31;62438;52.228;6.864;2023-06-04T06:35:43;14.65;68.09
74081;SHT31;62438;52.228;6.864;2023-06-04T06:37:46;14.66;67.47
74081;SHT31;62438;52.228;6.864;2023-06-04T06:39:46;14.80;67.25
74081;SHT31;62438;52.228;6.864;2023-06-04T06:41:47;14.93;67.13
74081;SHT31;62438;52.228;6.864;2023-06-04T06:43:47;14.96;65.81
74081;SHT31;62438;52.228;6.864;2023-06-04T06:45:48;14.98;65.82
74081;SHT31;62438;52.228;6.864;2023-06-04T06:47:48;15.04;64.99
74081;SHT31;62438;52.228;6.864;2023-06-04T06:49:49;15.17;66.20
74081;SHT31;62438;52.228;6.864;2023-06-04T06:51:49;15.27;64.77
74081;SHT31;62438;52.228;6.864;2023-06-04T06:53:50;15.41;63.64
74081;SHT31;62438;52.228;6.864;2023-06-04T06:55:53;15.49;64.90
74081;SHT31;62438;52.228;6.864;2023-06-04T06:57:53;15.48;64.90
74081;SHT31;62438;52.228;6.864;2023-06-04T06:59:53;15.63;66.68
74081;SHT31;62438;52.228;6.864;2023-06-04T07:01:54;15.68;62.76
74081;SHT31;62438;52.228;6.864;2023-06-04T07:03:54;15.79;63.96
74081;SHT31;62438;52.228;6.864;2023-06-04T07:05:55;15.90;62.33
74081;SHT31;62438;52.228;6.864;2023-06-04T07:07:55;15.95;63.14
74081;SHT31;62438;52.228;6.864;2023-06-04T07:09:57;15.93;62.26
74081;SHT31;62438;52.228;6.864;2023-06-04T07:11:57;15.95;62.99
74081;SHT31;62438;52.228;6.864;2023-06-04T07:13:58;16.14;61.84
74081;SHT31;62438;52.228;6.864;2023-06-04T07:15:58;16.28;62.41
74081;SHT31;62438;52.228;6.864;2023-06-04T07:17:59;16.23;61.03
74081;SHT31;62438;52.228;6.864;2023-06-04T07:19:59;16.35;61.39
74081;SHT31;62438;52.228;6.864;2023-06-04T07:22:00;16.47;62.49
74081;SHT31;62438;52.228;6.864;2023-06-04T07:24:00;16.53;60.45
74081;SHT31;62438;52.228;6.864;2023-06-04T07:26:01;16.58;60.17
74081;SHT31;62438;52.228;6.864;2023-06-04T07:28:01;16.65;60.25
74081;SHT31;62438;52.228;6.864;2023-06-04T07:30:06;16.79;58.02
74081;SHT31;62438;52.228;6.864;2023-06-04T07:32:07;16.82;57.89
74081;SHT31;62438;52.228;6.864;2023-06-04T07:34:08;16.81;59.47
74081;SHT31;62438;52.228;6.864;2023-06-04T07:36:15;16.84;58.97
74081;SHT31;62438;52.228;6.864;2023-06-04T07:38:15;16.99;59.12
74081;SHT31;62438;52.228;6.864;2023-06-04T07:40:16;16.89;60.09
74081;SHT31;62438;52.228;6.864;2023-06-04T07:42:17;16.95;59.69
74081;SHT31;62438;52.228;6.864;2023-06-04T07:44:17;17.15;60.19
74081;SHT31;62438;52.228;6.864;2023-06-04T07:46:17;17.27;59.27
74081;SHT31;62438;52.228;6.864;2023-06-04T07:48:21;17.13;57.57
74081;SHT31;62438;52.228;6.864;2023-06-04T07:50:21;17.24;59.86
74081;SHT31;62438;52.228;6.864;2023-06-04T07:52:22;17.53;59.14
74081;SHT31;62438;52.228;6.864;2023-06-04T07:54:22;17.69;58.41
74081;SHT31;62438;52.228;6.864;2023-06-04T07:56:23;17.85;56.93
74081;SHT31;62438;52.228;6.864;2023-06-04T07:58:24;17.95;57.89
74081;SHT31;62438;52.228;6.864;2023-06-04T08:00:25;17.92;56.66
74081;SHT31;62438;52.228;6.864;2023-06-04T08:02:25;17.94;58.10
74081;SHT31;62438;52.228;6.864;2023-06-04T08:04:26;17.82;55.50
74081;SHT31;62438;52.228;6.864;2023-06-04T08:06:27;17.95;56.60
74081;SHT31;62438;52.228;6.864;2023-06-04T08:08:27;18.11;57.61
74081;SHT31;62438;52.228;6.864;2023-06-04T08:10:28;18.02;54.00
74081;SHT31;62438;52.228;6.864;2023-06-04T08:12:28;18.18;56.18
74081;SHT31;62438;52.228;6.864;2023-06-04T08:14:28;18.33;56.47
74081;SHT31;62438;52.228;6.864;2023-06-04T08:16:31;18.29;55.50
74081;SHT31;62438;52.228;6.864;2023-06-04T08:18:32;18.52;57.06
74081;SHT31;62438;52.228;6.864;2023-06-04T08:20:32;18.45;53.98
74081;SHT31;62438;52.228;6.864;2023-06-04T08:22:33;18.53;53.88
74081;SHT31;62438;52.228;6.864;2023-06-04T08:24:33;18.66;53.87
74081;SHT31;62438;52.228;6.864;2023-06-04T08:26:34;18.80;53.62
74081;SHT31;62438;52.228;6.864;2023-06-04T08:28:34;18.80;54.55
74081;SHT31;62438;52.228;6.864;2023-06-04T08:30:35;18.77;52.85
74081;SHT31;62438;52.228;6.864;2023-06-04T08:32:36;18.86;52.62
74081;SHT31;62438;52.228;6.864;2023-06-04T08:34:36;19.08;52.86
74081;SHT31;62438;52.228;6.864;2023-06-04T08:36:37;19.10;52.68
74081;SHT31;62438;52.228;6.864;2023-06-04T08:38:37;19.27;53.16
74081;SHT31;62438;52.228;6.864;2023-06-04T08:40:37;19.42;51.39
74081;SHT31;62438;52.228;6.864;2023-06-04T08:42:41;19.27;50.58
74081;SHT31;62438;52.228;6.864;2023-06-04T08:44:45;19.34;52.10
74081;SHT31;62438;52.228;6.864;2023-06-04T08:46:51;19.65;51.97
74081;SHT31;62438;52.228;6.864;2023-06-04T08:48:54;19.65;51.27
74081;SHT31;62438;52.228;6.864;2023-06-04T08:50:57;19.70;49.90
74081;SHT31;62438;52.228;6.864;2023-06-04T08:52:59;19.70;50.62
74081;SHT31;62438;52.228;6.864;2023-06-04T08:55:00;19.85;50.06
74081;SHT31;62438;52.228;6.864;2023-06-04T08:57:01;20.07;50.75
74081;SHT31;62438;52.228;6.864;2023-06-04T08:59:05;19.82;48.10
74081;SHT31;62438;52.228;6.864;2023-06-04T09:01:07;20.01;48.93
74081;SHT31;62438;52.228;6.864;2023-06-04T09:03:08;20.18;48.69
74081;SHT31;62438;52.228;6.864;2023-06-04T09:05:20;20.33;45.51
74081;SHT31;62438;52.228;6.864;2023-06-04T09:07:21;20.14;48.18
74081;SHT31;62438;52.228;6.864;2023-06-04T09:09:22;20.25;48.64
74081;SHT31;62438;52.228;6.864;2023-06-04T09:11:26;20.35;44.82
74081;SHT31;62438;52.228;6.864;2023-06-04T09:13:30;20.64;46.85
74081;SHT31;62438;52.228;6.864;2023-06-04T09:15:33;20.43;42.41
74081;SHT31;62438;52.228;6.864;2023-06-04T09:17:33;20.71;43.15
74081;SHT31;62438;52.228;6.864;2023-06-04T09:19:33;21.00;41.52
74081;SHT31;62438;52.228;6.864;2023-06-04T09:21:34;21.20;42.72
74081;SHT31;62438;52.228;6.864;2023-06-04T09:23:44;21.20;44.12
74081;SHT31;62438;52.228;6.864;2023-06-04T09:25:44;21.04;42.09
74081;SHT31;62438;52.228;6.864;2023-06-04T09:27:45;21.33;42.86
74081;SHT31;62438;52.228;6.864;2023-06-04T09:29:53;21.27;42.11
74081;SHT31;62438;52.228;6.864;2023-06-04T09:31:58;21.33;41.50
74081;SHT31;62438;52.228;6.864;2023-06-04T09:33:59;21.62;41.66
74081;SHT31;62438;52.228;6.864;2023-06-04T09:35:59;21.58;42.24
74081;SHT31;62438;52.228;6.864;2023-06-04T09:38:00;21.73;40.98
74081;SHT31;62438;52.228;6.864;2023-06-04T09:40:00;21.61;39.64
74081;SHT31;62438;52.228;6.864;2023-06-04T09:42:02;21.40;37.16
74081;SHT31;62438;52.228;6.864;2023-06-04T09:44:03;21.67;41.60
74081;SHT31;62438;52.228;6.864;2023-06-04T09:46:11;21.92;39.66
74081;SHT31;62438;52.228;6.864;2023-06-04T09:48:18;21.80;38.40
74081;SHT31;62438;52.228;6.864;2023-06-04T09:50:33;22.10;39.52
74081;SHT31;62438;52.228;6.864;2023-06-04T09:52:34;22.20;40.13
74081;SHT31;62438;52.228;6.864;2023-06-04T09:54:41;22.39;40.02
74081;SHT31;62438;52.228;6.864;2023-06-04T09:56:42;22.64;38.34
74081;SHT31;62438;52.228;6.864;2023-06-04T09:58:43;22.60;36.90
74081;SHT31;62438;52.228;6.864;2023-06-04T10:00:45;21.97;36.44
74081;SHT31;62438;52.228;6.864;2023-06-04T10:02:46;22.30;37.43
74081;SHT31;62438;52.228;6.864;2023-06-04T10:04:55;22.10;37.68
74081;SHT31;62438;52.228;6.864;2023-06-04T10:06:58;22.36;38.32
74081;SHT31;62438;52.228;6.864;2023-06-04T10:09:05;22.81;36.92
74081;SHT31;62438;52.228;6.864;2023-06-04T10:11:08;22.70;37.53
74081;SHT31;62438;52.228;6.864;2023-06-04T10:13:17;23.03;37.53
74081;SHT31;62438;52.228;6.864;2023-06-04T10:15:18;23.25;36.25
74081;SHT31;62438;52.228;6.864;2023-06-04T10:17:22;23.10;37.24
74081;SHT31;62438;52.228;6.864;2023-06-04T10:19:23;23.25;36.52
74081;SHT31;62438;52.228;6.864;2023-06-04T10:21:23;23.52;36.56
74081;SHT31;62438;52.228;6.864;2023-06-04T10:23:25;23.32;35.92
74081;SHT31;62438;52.228;6.864;2023-06-04T10:25:26;23.55;37.64
74081;SHT31;62438;52.228;6.864;2023-06-04T10:27:27;23.79;37.02
74081;SHT31;62438;52.228;6.864;2023-06-04T10:29:29;23.67;35.33
74081;SHT31;62438;52.228;6.864;2023-06-04T10:31:30;24.07;34.68
74081;SHT31;62438;52.228;6.864;2023-06-04T10:33:31;24.13;38.23
74081;SHT31;62438;52.228;6.864;2023-06-04T10:35:32;24.09;34.94
74081;SHT31;62438;52.228;6.864;2023-06-04T10:37:34;24.13;35.73
74081;SHT31;62438;52.228;6.864;2023-06-04T10:39:34;24.54;36.68
74081;SHT31;62438;52.228;6.864;2023-06-04T10:41:37;24.45;35.52
74081;SHT31;62438;52.228;6.864;2023-06-04T10:43:37;24.71;36.23
74081;SHT31;62438;52.228;6.864;2023-06-04T10:45:37;24.44;34.76
74081;SHT31;62438;52.228;6.864;2023-06-04T10:47:38;24.90;35.32
74081;SHT31;62438;52.228;6.864;2023-06-04T10:49:41;24.93;34.08
74081;SHT31;62438;52.228;6.864;2023-06-04T10:51:41;24.75;34.10
74081;SHT31;62438;52.228;6.864;2023-06-04T10:53:43;24.51;35.74
74081;SHT31;62438;52.228;6.864;2023-06-04T10:55:45;24.98;34.51
74081;SHT31;62438;52.228;6.864;2023-06-04T10:57:59;25.12;35.38
74081;SHT31;62438;52.228;6.864;2023-06-04T11:00:01;25.20;31.96
74081;SHT31;62438;52.228;6.864;2023-06-04T11:02:07;25.26;33.35
74081;SHT31;62438;52.228;6.864;2023-06-04T11:04:24;25.41;34.94
74081;SHT31;62438;52.228;6.864;2023-06-04T11:06:25;25.30;35.13
74081;SHT31;62438;52.228;6.864;2023-06-04T11:08:30;25.51;31.20
74081;SHT31;62438;52.228;6.864;2023-06-04T11:10:35;25.60;32.38
74081;SHT31;62438;52.228;6.864;2023-06-04T11:12:46;25.31;32.88
74081;SHT31;62438;52.228;6.864;2023-06-04T11:14:55;25.10;33.38
74081;SHT31;62438;52.228;6.864;2023-06-04T11:16:56;25.27;33.22
74081;SHT31;62438;52.228;6.864;2023-06-04T11:18:57;25.31;33.27
74081;SHT31;62438;52.228;6.864;2023-06-04T11:21:00;25.77;35.94
74081;SHT31;62438;52.228;6.864;2023-06-04T11:23:01;25.18;33.60
74081;SHT31;62438;52.228;6.864;2023-06-04T11:25:03;25.53;34.83
74081;SHT31;62438;52.228;6.864;2023-06-04T11:27:05;25.41;34.70
74081;SHT31;62438;52.228;6.864;2023-06-04T11:29:08;25.75;33.92
74081;SHT31;62438;52.228;6.864;2023-06-04T11:31:08;25.08;32.74
74081;SHT31;62438;52.228;6.864;2023-06-04T11:33:09;25.44;33.71
74081;SHT31;62438;52.228;6.864;2023-06-04T11:35:09;25.64;33.72
74081;SHT31;62438;52.228;6.864;2023-06-04T11:37:11;25.92;36.05
74081;SHT31;62438;52.228;6.864;2023-06-04T11:39:11;25.50;32.70
74081;SHT31;62438;52.228;6.864;2023-06-04T11:41:13;25.34;33.50
74081;SHT31;62438;52.228;6.864;2023-06-04T11:43:13;25.92;32.48
74081;SHT31;62438;52.228;6.864;2023-06-04T11:45:15;26.12;32.13
74081;SHT31;62438;52.228;6.864;2023-06-04T11:47:16;25.88;32.96
74081;SHT31;62438;52.228;6.864;2023-06-04T11:49:17;26.24;35.43
74081;SHT31;62438;52.228;6.864;2023-06-04T11:51:19;25.91;32.53
74081;SHT31;62438;52.228;6.864;2023-06-04T11:53:21;26.25;32.72
74081;SHT31;62438;52.228;6.864;2023-06-04T11:55:22;26.63;34.52
74081;SHT31;62438;52.228;6.864;2023-06-04T11:57:23;26.79;30.15
74081;SHT31;62438;52.228;6.864;2023-06-04T11:59:23;26.18;30.53
74081;SHT31;62438;52.228;6.864;2023-06-04T12:01:24;26.29;31.81
74081;SHT31;62438;52.228;6.864;2023-06-04T12:03:46;26.63;33.08
74081;SHT31;62438;52.228;6.864;2023-06-04T12:05:47;26.53;31.32
74081;SHT31;62438;52.228;6.864;2023-06-04T12:07:47;26.55;31.47
74081;SHT31;62438;52.228;6.864;2023-06-04T12:09:50;26.50;33.26
74081;SHT31;62438;52.228;6.864;2023-06-04T12:11:59;26.97;32.36
74081;SHT31;62438;52.228;6.864;2023-06-04T12:14:06;27.04;32.52
74081;SHT31;62438;52.228;6.864;2023-06-04T12:16:07;27.42;31.56
74081;SHT31;62438;52.228;6.864;2023-06-04T12:18:07;27.28;32.10
74081;SHT31;62438;52.228;6.864;2023-06-04T12:20:10;26.90;31.37
74081;SHT31;62438;52.228;6.864;2023-06-04T12:22:10;26.98;32.15
74081;SHT31;62438;52.228;6.864;2023-06-04T12:24:13;26.09;32.86
74081;SHT31;62438;52.228;6.864;2023-06-04T12:26:23;26.59;32.95
74081;SHT31;62438;52.228;6.864;2023-06-04T12:28:30;26.49;33.21
74081;SHT31;62438;52.228;6.864;2023-06-04T12:30:38;27.03;30.43
74081;SHT31;62438;52.228;6.864;2023-06-04T12:32:38;26.97;34.75
74081;SHT31;62438;52.228;6.864;2023-06-04T12:34:42;26.45;32.88
74081;SHT31;62438;52.228;6.864;2023-06-04T12:36:42;26.32;32.25
74081;SHT31;62438;52.228;6.864;2023-06-04T12:38:43;26.43;31.87
74081;SHT31;62438;52.228;6.864;2023-06-04T12:40:43;26.83;32.90
74081;SHT31;62438;52.228;6.864;2023-06-04T12:42:43;27.30;34.06
74081;SHT31;62438;52.228;6.864;2023-06-04T12:44:44;27.35;32.19
74081;SHT31;62438;52.228;6.864;2023-06-04T12:46:45;27.37;29.81
74081;SHT31;62438;52.228;6.864;2023-06-04T12:48:45;27.61;32.73
74081;SHT31;62438;52.228;6.864;2023-06-04T12:50:46;27.38;31.41
74081;SHT31;62438;52.228;6.864;2023-06-04T12:52:46;27.07;34.36
74081;SHT31;62438;52.228;6.864;2023-06-04T12:54:47;27.32;29.50